Alexander Maersk — OZRC2 — position and weather

sailwx.info

Track history (hours):
 
Tides and Currents Weather Stations Pressure Air Temp Water Temp Dewpoint Dewpoint Depression Visibility Wind Speed Wind Dir Waves Ship Positions

Alexander Maersk

Last reported at 2016-Jun-23 13:33 UTC. Time now 2016-Jun-25 21:28 UTC.
Position N 35°35' E 014°05'.

Length 155 m; draft 8.5 m.

Type: Cargo ship. MMSI: 219470000.

Date/timePositionNaut miles runAvg speedWind from/ knotsBaromVisibWave heightAir tempDewpointWater temp
2016-Jun-23 13:33N 35°35' E 014°05'9 9.0
2016-Jun-23 12:33N 35°39' E 014°15'9 9.3
2016-Jun-23 11:33N 35°43' E 014°26'8 8.5
2016-Jun-23 10:33N 35°48' E 014°34'1 1.2
2016-Jun-23 09:32N 35°49' E 014°33'0 0.0
2016-Jun-23 08:32N 35°49' E 014°33'0 0.0
2016-Jun-23 07:32N 35°49' E 014°33'0 0.0
2016-Jun-23 05:32N 35°49' E 014°33'0 0.0
2016-Jun-23 04:32N 35°49' E 014°33'0 0.0
2016-Jun-23 02:26N 35°49' E 014°33'0 0.0
2016-Jun-23 01:32N 35°49' E 014°33'0 0.0
2016-Jun-23 00:32N 35°49' E 014°33'0 0.0
2016-Jun-22 23:32N 35°49' E 014°33'0 0.0
2016-Jun-22 22:32N 35°49' E 014°33'0 0.0
2016-Jun-22 21:32N 35°49' E 014°33'0 0.0
2016-Jun-22 18:08N 35°49' E 014°33'0 0.0
2016-Jun-22 17:32N 35°49' E 014°33'0 0.0
2016-Jun-22 15:17N 35°49' E 014°33'0 0.0
2016-Jun-22 14:32N 35°49' E 014°33'0 0.0
2016-Jun-22 13:32N 35°49' E 014°33'0 0.0
2016-Jun-22 12:32N 35°49' E 014°33'0 0.0
2016-Jun-22 11:26N 35°49' E 014°33'0 0.0
2016-Jun-22 10:20N 35°49' E 014°33'0 0.0
2016-Jun-22 09:32N 35°49' E 014°33'0 0.0
2016-Jun-22 08:32N 35°49' E 014°33'0 0.4
2016-Jun-22 07:31N 35°49' E 014°32'5 4.9
2016-Jun-22 06:33N 35°45' E 014°35'6 6.3
2016-Jun-22 05:33N 35°39' E 014°36'8 8.0
2016-Jun-22 04:33N 35°31' E 014°36'9 8.9
2016-Jun-22 03:33N 35°22' E 014°33'9 9.0
2016-Jun-22 02:33N 35°13' E 014°32'7 7.5
2016-Jun-22 01:33N 35°06' E 014°31'20 6.7
2016-Jun-21 22:33N 34°46' E 014°27'  
Track history (hours):
 
Tides and Currents Weather Stations Pressure Air Temp Water Temp Dewpoint Dewpoint Depression Visibility Wind Speed Wind Dir Waves Ship Positions

Alexander Maersk

Last reported at 2016-Jun-23 13:33 UTC. Time now 2016-Jun-25 21:28 UTC.
Position N 35°35' E 014°05'.

Length 155 m; draft 8.5 m.

Type: Cargo ship. MMSI: 219470000.

Date/timePositionNaut miles runAvg speedWind from/ knotsBaromVisibWave heightAir tempDewpointWater temp
2016-Jun-23 13:33N 35°35' E 014°05'9 9.0
2016-Jun-23 12:33N 35°39' E 014°15'9 9.3
2016-Jun-23 11:33N 35°43' E 014°26'8 8.5
2016-Jun-23 10:33N 35°48' E 014°34'1 1.2
2016-Jun-23 09:32N 35°49' E 014°33'0 0.0
2016-Jun-23 08:32N 35°49' E 014°33'0 0.0
2016-Jun-23 07:32N 35°49' E 014°33'0 0.0
2016-Jun-23 05:32N 35°49' E 014°33'0 0.0
2016-Jun-23 04:32N 35°49' E 014°33'0 0.0
2016-Jun-23 02:26N 35°49' E 014°33'0 0.0
2016-Jun-23 01:32N 35°49' E 014°33'0 0.0
2016-Jun-23 00:32N 35°49' E 014°33'0 0.0
2016-Jun-22 23:32N 35°49' E 014°33'0 0.0
2016-Jun-22 22:32N 35°49' E 014°33'0 0.0
2016-Jun-22 21:32N 35°49' E 014°33'0 0.0
2016-Jun-22 18:08N 35°49' E 014°33'0 0.0
2016-Jun-22 17:32N 35°49' E 014°33'0 0.0
2016-Jun-22 15:17N 35°49' E 014°33'0 0.0
2016-Jun-22 14:32N 35°49' E 014°33'0 0.0
2016-Jun-22 13:32N 35°49' E 014°33'0 0.0
2016-Jun-22 12:32N 35°49' E 014°33'0 0.0
2016-Jun-22 11:26N 35°49' E 014°33'0 0.0
2016-Jun-22 10:20N 35°49' E 014°33'0 0.0
2016-Jun-22 09:32N 35°49' E 014°33'0 0.0
2016-Jun-22 08:32N 35°49' E 014°33'0 0.4
2016-Jun-22 07:31N 35°49' E 014°32'5 4.9
2016-Jun-22 06:33N 35°45' E 014°35'6 6.3
2016-Jun-22 05:33N 35°39' E 014°36'8 8.0
2016-Jun-22 04:33N 35°31' E 014°36'9 8.9
2016-Jun-22 03:33N 35°22' E 014°33'9 9.0
2016-Jun-22 02:33N 35°13' E 014°32'7 7.5
2016-Jun-22 01:33N 35°06' E 014°31'20 6.7
2016-Jun-21 22:33N 34°46' E 014°27'  

Dump ship's entire track history